Puerto Banus, Marbella

>

This is an optional block (switch it off / on) in the settings - file ($SITE['banners'] = false;)

You can display ads, any other important text or photo’s using text / html or PHP code.

You can place one or more at the top and or bottom and it can all be different for content / size .



Thunder radar more information blitzortung!


Rain radar  rain snow radar


Visit our other weather sites:

Documentation for the template used

MeteoibericaRed estaciones Meteorologicas

MeteoclimaticRed estaciones Meteorologicas



No particular awareness of the weather is required.    There are no Weather-warnings

Nearby METAR Reports

   
EBAW - Antwerp
Updated: 22-04-2018 10:20
Light Showers, Rain, Partly Cloudy  
Light Showers, Rain, Partly Cloudy  
   Wind: South 7.4 km/h
Wind: South 7.4 km/h
Temperature: 18°C
Dew Point: 13°C
Humidity: 73%
Barometer: 1013 hPa
Clouds: Partly Cloudy
Visibility: 7 km
Cloud details: Partly Cloudy 5000 ft
EBAW 220820Z 17004KT 140V210 7000 -SHRA SCT050TCU 18/13 Q1013 NOSIG
EBLG - Liège
Updated: 22-04-2018 10:20
Clear  
Clear  
   Wind: South 11.1 km/h
Wind: South 11.1 km/h
Temperature: 21°C
Dew Point: 12°C
Humidity: 57%
Barometer: 1013 hPa
Visibility: More than 10 km
Cloud details: Clear
EBLG 220820Z 17006KT CAVOK 21/12 Q1013 NOSIG
EBCV - Mons/Bergen
Updated: 22-04-2018 10:25
Clear  
Clear  
   Wind: East 5.6 km/h
Wind: East 5.6 km/h
Temperature: 20°C
Dew Point: 14°C
Humidity: 69%
Barometer: 1012 hPa
Clouds: Clear
Visibility: 7 km
Cloud details: Clear
EBCV 220825Z AUTO 10003KT 7000 NCD 20/14 Q1012 WHT
EHBK - Maastricht
Updated: 22-04-2018 10:25
Partly Cloudy  
Partly Cloudy  
   Wind: SSW 13 km/h
Wind: SSW 13 km/h
Temperature: 21°C
Dew Point: 13°C
Humidity: 60%
Barometer: 1013 hPa
Clouds: Partly Cloudy
Visibility: More than 10 km
Cloud details: Partly Cloudy
EHBK 220825Z AUTO 21007KT 170V230 9999 NSC 21/13 Q1013 TEMPO 5000 TSRA FEW050CB
ELLX - Luxemburg
Updated: 22-04-2018 10:20
Clear  
Clear  
   Wind: South 14.8 km/h
Wind: South 14.8 km/h
Temperature: 20°C
Dew Point: 12°C
Humidity: 60%
Barometer: 1015 hPa
Visibility: More than 10 km
Cloud details: Clear
ELLX 220820Z 18008KT CAVOK 20/12 Q1015 NOSIG
EBOS - Oostende
Updated: 22-04-2018 10:20
Few Clouds  
Few Clouds  
   Wind: SSE 16.7 km/h
Wind: SSE 16.7 km/h
Temperature: 19°C
Dew Point: 14°C
Humidity: 73%
Barometer: 1011 hPa
Clouds: Few Clouds
Visibility: 6 km
Cloud details: Few Clouds 3200 ft
EBOS 220820Z 16009KT 6000 R08///// R26///// FEW032 19/14 Q1011 TEMPO 4000 TSRA

Script developed by  Saratoga-weather.org Adapted for the template by  Weerstation Leuven

You find our weather info also at:

Weather Underground

Iberian Peninsula Weather Network